sensor_id;sensor_type;location;lat;lon;timestamp;P1;durP1;ratioP1;P2;durP2;ratioP2
76131;SDS011;64877;50.994;13.650;2024-01-07T00:00:16;28.13;;;16.23;;
76131;SDS011;64877;50.994;13.650;2024-01-07T00:02:42;26.13;;;15.18;;
76131;SDS011;64877;50.994;13.650;2024-01-07T00:05:07;29.40;;;15.52;;
76131;SDS011;64877;50.994;13.650;2024-01-07T00:07:33;23.98;;;13.88;;
76131;SDS011;64877;50.994;13.650;2024-01-07T00:09:58;27.48;;;14.38;;
76131;SDS011;64877;50.994;13.650;2024-01-07T00:12:23;27.80;;;14.23;;
76131;SDS011;64877;50.994;13.650;2024-01-07T00:14:50;24.52;;;12.45;;
76131;SDS011;64877;50.994;13.650;2024-01-07T00:17:16;22.50;;;12.65;;
76131;SDS011;64877;50.994;13.650;2024-01-07T00:19:41;27.10;;;12.95;;
76131;SDS011;64877;50.994;13.650;2024-01-07T00:22:07;26.13;;;13.38;;
76131;SDS011;64877;50.994;13.650;2024-01-07T00:24:32;25.25;;;13.45;;
76131;SDS011;64877;50.994;13.650;2024-01-07T00:26:58;27.27;;;13.10;;
76131;SDS011;64877;50.994;13.650;2024-01-07T00:29:23;26.60;;;14.30;;
76131;SDS011;64877;50.994;13.650;2024-01-07T00:31:48;28.35;;;13.73;;
76131;SDS011;64877;50.994;13.650;2024-01-07T00:34:14;25.85;;;14.02;;
76131;SDS011;64877;50.994;13.650;2024-01-07T00:36:39;32.03;;;16.88;;
76131;SDS011;64877;50.994;13.650;2024-01-07T00:39:05;26.33;;;13.43;;
76131;SDS011;64877;50.994;13.650;2024-01-07T00:41:31;31.88;;;16.15;;
76131;SDS011;64877;50.994;13.650;2024-01-07T00:43:57;26.65;;;15.05;;
76131;SDS011;64877;50.994;13.650;2024-01-07T00:46:23;32.17;;;14.60;;
76131;SDS011;64877;50.994;13.650;2024-01-07T00:48:48;29.52;;;14.77;;
76131;SDS011;64877;50.994;13.650;2024-01-07T00:51:14;27.23;;;13.07;;
76131;SDS011;64877;50.994;13.650;2024-01-07T00:53:39;31.85;;;14.90;;
76131;SDS011;64877;50.994;13.650;2024-01-07T00:56:05;28.27;;;15.40;;
76131;SDS011;64877;50.994;13.650;2024-01-07T00:58:31;26.23;;;14.68;;
76131;SDS011;64877;50.994;13.650;2024-01-07T01:00:56;29.75;;;16.00;;
76131;SDS011;64877;50.994;13.650;2024-01-07T01:03:22;31.08;;;15.93;;
76131;SDS011;64877;50.994;13.650;2024-01-07T01:05:48;29.73;;;14.20;;
76131;SDS011;64877;50.994;13.650;2024-01-07T01:08:13;25.60;;;14.05;;
76131;SDS011;64877;50.994;13.650;2024-01-07T01:10:38;27.30;;;14.52;;
76131;SDS011;64877;50.994;13.650;2024-01-07T01:13:04;25.65;;;14.35;;
76131;SDS011;64877;50.994;13.650;2024-01-07T01:15:29;30.00;;;14.85;;
76131;SDS011;64877;50.994;13.650;2024-01-07T01:17:55;29.15;;;13.55;;
76131;SDS011;64877;50.994;13.650;2024-01-07T01:20:20;28.90;;;15.93;;
76131;SDS011;64877;50.994;13.650;2024-01-07T01:22:47;29.50;;;15.60;;
76131;SDS011;64877;50.994;13.650;2024-01-07T01:25:12;27.10;;;14.10;;
76131;SDS011;64877;50.994;13.650;2024-01-07T01:27:37;24.77;;;14.43;;
76131;SDS011;64877;50.994;13.650;2024-01-07T01:30:03;24.67;;;13.38;;
76131;SDS011;64877;50.994;13.650;2024-01-07T01:32:29;25.80;;;13.85;;
76131;SDS011;64877;50.994;13.650;2024-01-07T01:34:55;28.00;;;14.88;;
76131;SDS011;64877;50.994;13.650;2024-01-07T01:37:20;27.20;;;13.63;;
76131;SDS011;64877;50.994;13.650;2024-01-07T01:39:45;27.13;;;13.40;;
76131;SDS011;64877;50.994;13.650;2024-01-07T01:42:11;26.75;;;13.85;;
76131;SDS011;64877;50.994;13.650;2024-01-07T01:44:37;28.55;;;13.57;;
76131;SDS011;64877;50.994;13.650;2024-01-07T01:47:02;25.70;;;12.68;;
76131;SDS011;64877;50.994;13.650;2024-01-07T01:49:28;24.67;;;12.65;;
76131;SDS011;64877;50.994;13.650;2024-01-07T01:51:53;25.77;;;12.70;;
76131;SDS011;64877;50.994;13.650;2024-01-07T01:54:19;29.40;;;13.88;;
76131;SDS011;64877;50.994;13.650;2024-01-07T01:56:45;29.70;;;13.27;;
76131;SDS011;64877;50.994;13.650;2024-01-07T01:59:15;28.02;;;14.27;;
76131;SDS011;64877;50.994;13.650;2024-01-07T02:01:41;28.65;;;13.55;;
76131;SDS011;64877;50.994;13.650;2024-01-07T02:04:07;30.52;;;14.05;;
76131;SDS011;64877;50.994;13.650;2024-01-07T02:06:33;26.25;;;12.77;;
76131;SDS011;64877;50.994;13.650;2024-01-07T02:09:00;31.38;;;14.43;;
76131;SDS011;64877;50.994;13.650;2024-01-07T02:11:26;27.88;;;14.05;;
76131;SDS011;64877;50.994;13.650;2024-01-07T02:13:52;27.35;;;13.25;;
76131;SDS011;64877;50.994;13.650;2024-01-07T02:16:17;28.98;;;14.15;;
76131;SDS011;64877;50.994;13.650;2024-01-07T02:18:43;27.75;;;13.05;;
76131;SDS011;64877;50.994;13.650;2024-01-07T02:21:10;26.63;;;13.70;;
76131;SDS011;64877;50.994;13.650;2024-01-07T02:23:36;27.98;;;14.45;;
76131;SDS011;64877;50.994;13.650;2024-01-07T02:26:02;30.27;;;13.48;;
76131;SDS011;64877;50.994;13.650;2024-01-07T02:28:28;26.52;;;13.80;;
76131;SDS011;64877;50.994;13.650;2024-01-07T02:30:55;23.92;;;13.60;;
76131;SDS011;64877;50.994;13.650;2024-01-07T02:33:20;23.13;;;11.82;;
76131;SDS011;64877;50.994;13.650;2024-01-07T02:35:46;30.95;;;14.32;;
76131;SDS011;64877;50.994;13.650;2024-01-07T02:38:11;31.98;;;14.15;;
76131;SDS011;64877;50.994;13.650;2024-01-07T02:40:37;23.95;;;12.95;;
76131;SDS011;64877;50.994;13.650;2024-01-07T02:43:02;26.50;;;13.55;;
76131;SDS011;64877;50.994;13.650;2024-01-07T02:45:28;29.95;;;15.27;;
76131;SDS011;64877;50.994;13.650;2024-01-07T02:47:54;25.42;;;13.30;;
76131;SDS011;64877;50.994;13.650;2024-01-07T02:50:21;27.75;;;13.82;;
76131;SDS011;64877;50.994;13.650;2024-01-07T02:52:46;20.85;;;12.50;;
76131;SDS011;64877;50.994;13.650;2024-01-07T02:55:11;23.40;;;12.57;;
76131;SDS011;64877;50.994;13.650;2024-01-07T02:57:37;25.20;;;13.13;;
76131;SDS011;64877;50.994;13.650;2024-01-07T03:00:02;25.42;;;12.35;;
76131;SDS011;64877;50.994;13.650;2024-01-07T03:02:30;27.38;;;11.95;;
76131;SDS011;64877;50.994;13.650;2024-01-07T03:04:55;27.17;;;12.82;;
76131;SDS011;64877;50.994;13.650;2024-01-07T03:07:20;22.80;;;12.23;;
76131;SDS011;64877;50.994;13.650;2024-01-07T03:09:46;22.08;;;11.20;;
76131;SDS011;64877;50.994;13.650;2024-01-07T03:12:14;21.95;;;11.93;;
76131;SDS011;64877;50.994;13.650;2024-01-07T03:14:40;21.90;;;12.13;;
76131;SDS011;64877;50.994;13.650;2024-01-07T03:17:06;23.83;;;12.48;;
76131;SDS011;64877;50.994;13.650;2024-01-07T03:19:32;24.33;;;12.00;;
76131;SDS011;64877;50.994;13.650;2024-01-07T03:21:58;23.92;;;10.38;;
76131;SDS011;64877;50.994;13.650;2024-01-07T03:24:23;25.33;;;11.90;;
76131;SDS011;64877;50.994;13.650;2024-01-07T03:26:49;21.70;;;10.80;;
76131;SDS011;64877;50.994;13.650;2024-01-07T03:29:15;25.30;;;12.43;;
76131;SDS011;64877;50.994;13.650;2024-01-07T03:31:40;22.20;;;11.70;;
76131;SDS011;64877;50.994;13.650;2024-01-07T03:34:05;23.90;;;10.77;;
76131;SDS011;64877;50.994;13.650;2024-01-07T03:36:31;24.60;;;11.65;;
76131;SDS011;64877;50.994;13.650;2024-01-07T03:38:56;27.17;;;11.63;;
76131;SDS011;64877;50.994;13.650;2024-01-07T03:41:22;22.33;;;11.30;;
76131;SDS011;64877;50.994;13.650;2024-01-07T03:43:47;20.45;;;10.18;;
76131;SDS011;64877;50.994;13.650;2024-01-07T03:46:14;19.30;;;9.80;;
76131;SDS011;64877;50.994;13.650;2024-01-07T03:48:40;19.80;;;10.65;;
76131;SDS011;64877;50.994;13.650;2024-01-07T03:51:06;21.10;;;10.38;;
76131;SDS011;64877;50.994;13.650;2024-01-07T03:53:32;21.17;;;11.05;;
76131;SDS011;64877;50.994;13.650;2024-01-07T03:55:58;18.25;;;10.50;;
76131;SDS011;64877;50.994;13.650;2024-01-07T03:58:23;20.25;;;10.95;;
76131;SDS011;64877;50.994;13.650;2024-01-07T04:00:48;20.25;;;9.55;;
76131;SDS011;64877;50.994;13.650;2024-01-07T04:03:14;21.27;;;10.75;;
76131;SDS011;64877;50.994;13.650;2024-01-07T04:05:39;19.90;;;9.82;;
76131;SDS011;64877;50.994;13.650;2024-01-07T04:08:05;20.77;;;10.50;;
76131;SDS011;64877;50.994;13.650;2024-01-07T04:10:30;19.90;;;10.05;;
76131;SDS011;64877;50.994;13.650;2024-01-07T04:12:56;24.25;;;10.73;;
76131;SDS011;64877;50.994;13.650;2024-01-07T04:15:21;19.75;;;10.65;;
76131;SDS011;64877;50.994;13.650;2024-01-07T04:17:47;21.45;;;10.82;;
76131;SDS011;64877;50.994;13.650;2024-01-07T04:20:12;27.00;;;12.23;;
76131;SDS011;64877;50.994;13.650;2024-01-07T04:22:39;18.08;;;10.63;;
76131;SDS011;64877;50.994;13.650;2024-01-07T04:25:04;20.92;;;10.05;;
76131;SDS011;64877;50.994;13.650;2024-01-07T04:27:34;24.92;;;10.52;;
76131;SDS011;64877;50.994;13.650;2024-01-07T04:30:00;25.20;;;11.77;;
76131;SDS011;64877;50.994;13.650;2024-01-07T04:32:26;26.50;;;12.43;;
76131;SDS011;64877;50.994;13.650;2024-01-07T04:34:52;22.63;;;11.00;;
76131;SDS011;64877;50.994;13.650;2024-01-07T04:37:17;21.55;;;11.00;;
76131;SDS011;64877;50.994;13.650;2024-01-07T04:39:43;19.73;;;10.10;;
76131;SDS011;64877;50.994;13.650;2024-01-07T04:42:08;21.13;;;10.35;;
76131;SDS011;64877;50.994;13.650;2024-01-07T04:44:33;19.63;;;10.50;;
76131;SDS011;64877;50.994;13.650;2024-01-07T04:46:59;23.60;;;11.18;;
76131;SDS011;64877;50.994;13.650;2024-01-07T04:49:24;23.58;;;10.27;;
76131;SDS011;64877;50.994;13.650;2024-01-07T04:51:49;18.42;;;9.75;;
76131;SDS011;64877;50.994;13.650;2024-01-07T04:54:15;21.52;;;9.63;;
76131;SDS011;64877;50.994;13.650;2024-01-07T04:56:40;18.95;;;9.60;;
76131;SDS011;64877;50.994;13.650;2024-01-07T04:59:06;21.90;;;9.20;;
76131;SDS011;64877;50.994;13.650;2024-01-07T05:01:34;19.70;;;10.15;;
76131;SDS011;64877;50.994;13.650;2024-01-07T05:04:01;19.50;;;9.45;;
76131;SDS011;64877;50.994;13.650;2024-01-07T05:06:26;22.83;;;11.20;;
76131;SDS011;64877;50.994;13.650;2024-01-07T05:08:52;15.80;;;9.43;;
76131;SDS011;64877;50.994;13.650;2024-01-07T05:11:17;18.88;;;10.48;;
76131;SDS011;64877;50.994;13.650;2024-01-07T05:13:43;14.77;;;8.25;;
76131;SDS011;64877;50.994;13.650;2024-01-07T05:16:08;16.92;;;9.48;;
76131;SDS011;64877;50.994;13.650;2024-01-07T05:18:33;19.75;;;9.95;;
76131;SDS011;64877;50.994;13.650;2024-01-07T05:20:59;17.85;;;8.48;;
76131;SDS011;64877;50.994;13.650;2024-01-07T05:23:24;17.45;;;9.02;;
76131;SDS011;64877;50.994;13.650;2024-01-07T05:25:49;15.50;;;9.20;;
76131;SDS011;64877;50.994;13.650;2024-01-07T05:28:15;19.75;;;9.25;;
76131;SDS011;64877;50.994;13.650;2024-01-07T05:30:44;19.27;;;9.07;;
76131;SDS011;64877;50.994;13.650;2024-01-07T05:33:09;19.88;;;9.57;;
76131;SDS011;64877;50.994;13.650;2024-01-07T05:35:35;21.15;;;9.57;;
76131;SDS011;64877;50.994;13.650;2024-01-07T05:38:00;20.60;;;9.25;;
76131;SDS011;64877;50.994;13.650;2024-01-07T05:40:26;18.65;;;8.43;;
76131;SDS011;64877;50.994;13.650;2024-01-07T05:42:51;15.70;;;9.30;;
76131;SDS011;64877;50.994;13.650;2024-01-07T05:45:17;14.15;;;8.35;;
76131;SDS011;64877;50.994;13.650;2024-01-07T05:47:42;19.33;;;8.23;;
76131;SDS011;64877;50.994;13.650;2024-01-07T05:50:07;15.52;;;8.20;;
76131;SDS011;64877;50.994;13.650;2024-01-07T05:52:33;19.50;;;8.90;;
76131;SDS011;64877;50.994;13.650;2024-01-07T05:54:59;14.73;;;8.00;;
76131;SDS011;64877;50.994;13.650;2024-01-07T05:57:24;12.95;;;7.35;;
76131;SDS011;64877;50.994;13.650;2024-01-07T05:59:50;17.40;;;7.45;;
76131;SDS011;64877;50.994;13.650;2024-01-07T06:02:15;17.70;;;8.40;;
76131;SDS011;64877;50.994;13.650;2024-01-07T06:04:42;16.88;;;8.85;;
76131;SDS011;64877;50.994;13.650;2024-01-07T06:07:07;16.50;;;8.10;;
76131;SDS011;64877;50.994;13.650;2024-01-07T06:09:33;18.88;;;8.93;;
76131;SDS011;64877;50.994;13.650;2024-01-07T06:11:58;19.85;;;8.85;;
76131;SDS011;64877;50.994;13.650;2024-01-07T06:14:24;17.90;;;8.52;;
76131;SDS011;64877;50.994;13.650;2024-01-07T06:16:49;18.55;;;7.82;;
76131;SDS011;64877;50.994;13.650;2024-01-07T06:19:18;14.65;;;7.15;;
76131;SDS011;64877;50.994;13.650;2024-01-07T06:21:44;13.43;;;6.88;;
76131;SDS011;64877;50.994;13.650;2024-01-07T06:24:10;13.20;;;7.25;;
76131;SDS011;64877;50.994;13.650;2024-01-07T06:26:36;15.82;;;7.63;;
76131;SDS011;64877;50.994;13.650;2024-01-07T06:29:04;12.90;;;6.63;;
76131;SDS011;64877;50.994;13.650;2024-01-07T06:31:29;13.52;;;6.53;;
76131;SDS011;64877;50.994;13.650;2024-01-07T06:33:54;12.88;;;6.65;;
76131;SDS011;64877;50.994;13.650;2024-01-07T06:38:50;15.48;;;6.22;;
76131;SDS011;64877;50.994;13.650;2024-01-07T06:41:15;16.00;;;6.55;;
76131;SDS011;64877;50.994;13.650;2024-01-07T06:43:40;13.00;;;6.38;;
76131;SDS011;64877;50.994;13.650;2024-01-07T06:46:06;11.38;;;6.32;;
76131;SDS011;64877;50.994;13.650;2024-01-07T06:48:31;12.05;;;6.53;;
76131;SDS011;64877;50.994;13.650;2024-01-07T06:50:57;14.75;;;6.53;;
76131;SDS011;64877;50.994;13.650;2024-01-07T06:53:22;11.45;;;5.85;;
76131;SDS011;64877;50.994;13.650;2024-01-07T06:55:48;12.73;;;6.05;;
76131;SDS011;64877;50.994;13.650;2024-01-07T06:58:13;10.88;;;5.03;;
76131;SDS011;64877;50.994;13.650;2024-01-07T07:00:38;11.45;;;5.68;;
76131;SDS011;64877;50.994;13.650;2024-01-07T07:03:04;12.27;;;6.05;;
76131;SDS011;64877;50.994;13.650;2024-01-07T07:05:30;11.57;;;5.60;;
76131;SDS011;64877;50.994;13.650;2024-01-07T07:07:56;12.13;;;5.82;;
76131;SDS011;64877;50.994;13.650;2024-01-07T07:10:22;10.50;;;5.00;;
76131;SDS011;64877;50.994;13.650;2024-01-07T07:12:47;11.10;;;5.03;;
76131;SDS011;64877;50.994;13.650;2024-01-07T07:15:12;8.50;;;4.90;;
76131;SDS011;64877;50.994;13.650;2024-01-07T07:17:38;13.45;;;5.40;;
76131;SDS011;64877;50.994;13.650;2024-01-07T07:20:05;8.10;;;4.13;;
76131;SDS011;64877;50.994;13.650;2024-01-07T07:22:31;9.43;;;4.55;;
76131;SDS011;64877;50.994;13.650;2024-01-07T07:24:56;8.60;;;5.18;;
76131;SDS011;64877;50.994;13.650;2024-01-07T07:27:22;9.38;;;5.55;;
76131;SDS011;64877;50.994;13.650;2024-01-07T07:29:47;12.52;;;5.20;;
76131;SDS011;64877;50.994;13.650;2024-01-07T07:32:12;8.30;;;4.35;;
76131;SDS011;64877;50.994;13.650;2024-01-07T07:34:38;9.07;;;4.88;;
76131;SDS011;64877;50.994;13.650;2024-01-07T07:37:03;11.23;;;4.75;;
76131;SDS011;64877;50.994;13.650;2024-01-07T07:39:29;9.68;;;4.43;;
76131;SDS011;64877;50.994;13.650;2024-01-07T07:41:55;8.95;;;4.60;;
76131;SDS011;64877;50.994;13.650;2024-01-07T07:44:20;9.52;;;4.70;;
76131;SDS011;64877;50.994;13.650;2024-01-07T07:46:45;8.80;;;4.32;;
76131;SDS011;64877;50.994;13.650;2024-01-07T07:49:11;11.13;;;4.55;;
76131;SDS011;64877;50.994;13.650;2024-01-07T07:51:36;7.93;;;4.35;;
76131;SDS011;64877;50.994;13.650;2024-01-07T07:54:02;7.65;;;3.95;;
76131;SDS011;64877;50.994;13.650;2024-01-07T07:56:28;8.77;;;4.00;;
76131;SDS011;64877;50.994;13.650;2024-01-07T07:58:54;8.73;;;4.15;;
76131;SDS011;64877;50.994;13.650;2024-01-07T08:01:20;7.30;;;3.85;;
76131;SDS011;64877;50.994;13.650;2024-01-07T08:03:45;7.45;;;4.03;;
76131;SDS011;64877;50.994;13.650;2024-01-07T08:06:10;8.98;;;3.55;;
76131;SDS011;64877;50.994;13.650;2024-01-07T08:08:36;6.88;;;3.53;;
76131;SDS011;64877;50.994;13.650;2024-01-07T08:11:01;7.53;;;4.03;;
76131;SDS011;64877;50.994;13.650;2024-01-07T08:13:27;8.48;;;3.95;;
76131;SDS011;64877;50.994;13.650;2024-01-07T08:15:52;8.40;;;4.10;;
76131;SDS011;64877;50.994;13.650;2024-01-07T08:18:18;6.70;;;4.10;;
76131;SDS011;64877;50.994;13.650;2024-01-07T08:20:43;8.55;;;3.42;;
76131;SDS011;64877;50.994;13.650;2024-01-07T08:23:08;9.68;;;4.78;;
76131;SDS011;64877;50.994;13.650;2024-01-07T08:25:35;8.02;;;4.75;;
76131;SDS011;64877;50.994;13.650;2024-01-07T08:28:00;9.20;;;3.95;;
76131;SDS011;64877;50.994;13.650;2024-01-07T08:30:26;6.10;;;3.20;;
76131;SDS011;64877;50.994;13.650;2024-01-07T08:32:51;7.78;;;3.63;;
76131;SDS011;64877;50.994;13.650;2024-01-07T08:35:17;6.95;;;3.28;;
76131;SDS011;64877;50.994;13.650;2024-01-07T08:37:42;6.30;;;3.45;;
76131;SDS011;64877;50.994;13.650;2024-01-07T08:40:08;6.82;;;3.10;;
76131;SDS011;64877;50.994;13.650;2024-01-07T08:42:35;7.63;;;3.33;;
76131;SDS011;64877;50.994;13.650;2024-01-07T08:45:01;5.32;;;2.88;;
76131;SDS011;64877;50.994;13.650;2024-01-07T08:47:26;6.78;;;3.00;;
76131;SDS011;64877;50.994;13.650;2024-01-07T08:49:51;5.13;;;2.17;;
76131;SDS011;64877;50.994;13.650;2024-01-07T08:52:19;7.05;;;2.92;;
76131;SDS011;64877;50.994;13.650;2024-01-07T08:54:44;4.80;;;2.53;;
76131;SDS011;64877;50.994;13.650;2024-01-07T08:57:10;6.03;;;3.13;;
76131;SDS011;64877;50.994;13.650;2024-01-07T08:59:35;5.05;;;2.67;;
76131;SDS011;64877;50.994;13.650;2024-01-07T09:02:01;6.35;;;2.63;;
76131;SDS011;64877;50.994;13.650;2024-01-07T09:04:27;6.35;;;3.00;;
76131;SDS011;64877;50.994;13.650;2024-01-07T09:06:53;5.22;;;2.70;;
76131;SDS011;64877;50.994;13.650;2024-01-07T09:09:18;5.15;;;2.47;;
76131;SDS011;64877;50.994;13.650;2024-01-07T09:11:44;7.72;;;2.60;;
76131;SDS011;64877;50.994;13.650;2024-01-07T09:14:09;3.53;;;2.10;;
76131;SDS011;64877;50.994;13.650;2024-01-07T09:16:34;5.25;;;2.42;;
76131;SDS011;64877;50.994;13.650;2024-01-07T09:19:00;7.32;;;2.67;;
76131;SDS011;64877;50.994;13.650;2024-01-07T09:21:25;5.10;;;2.60;;
76131;SDS011;64877;50.994;13.650;2024-01-07T09:23:51;4.18;;;2.33;;
76131;SDS011;64877;50.994;13.650;2024-01-07T09:26:16;7.07;;;2.78;;
76131;SDS011;64877;50.994;13.650;2024-01-07T09:28:42;4.97;;;2.50;;
76131;SDS011;64877;50.994;13.650;2024-01-07T09:31:08;4.63;;;2.60;;
76131;SDS011;64877;50.994;13.650;2024-01-07T09:33:33;4.47;;;2.70;;
76131;SDS011;64877;50.994;13.650;2024-01-07T09:35:58;6.93;;;2.50;;
76131;SDS011;64877;50.994;13.650;2024-01-07T09:38:24;6.18;;;2.92;;
76131;SDS011;64877;50.994;13.650;2024-01-07T09:40:52;5.72;;;3.42;;
76131;SDS011;64877;50.994;13.650;2024-01-07T09:43:18;4.05;;;2.22;;
76131;SDS011;64877;50.994;13.650;2024-01-07T09:45:48;6.70;;;2.95;;
76131;SDS011;64877;50.994;13.650;2024-01-07T09:48:14;3.53;;;2.25;;
76131;SDS011;64877;50.994;13.650;2024-01-07T09:50:40;4.78;;;2.70;;
76131;SDS011;64877;50.994;13.650;2024-01-07T09:53:06;6.55;;;3.70;;
76131;SDS011;64877;50.994;13.650;2024-01-07T09:55:56;4.97;;;2.65;;
76131;SDS011;64877;50.994;13.650;2024-01-07T09:58:26;7.68;;;3.33;;
76131;SDS011;64877;50.994;13.650;2024-01-07T10:00:51;10.20;;;3.53;;
76131;SDS011;64877;50.994;13.650;2024-01-07T10:03:17;5.63;;;2.47;;
76131;SDS011;64877;50.994;13.650;2024-01-07T10:05:43;6.70;;;3.08;;
76131;SDS011;64877;50.994;13.650;2024-01-07T10:08:09;4.68;;;2.95;;
76131;SDS011;64877;50.994;13.650;2024-01-07T10:10:34;7.03;;;2.55;;
76131;SDS011;64877;50.994;13.650;2024-01-07T10:13:00;5.53;;;2.83;;
76131;SDS011;64877;50.994;13.650;2024-01-07T10:15:26;6.32;;;3.45;;
76131;SDS011;64877;50.994;13.650;2024-01-07T10:17:54;6.30;;;3.45;;
76131;SDS011;64877;50.994;13.650;2024-01-07T10:20:20;7.90;;;3.45;;
76131;SDS011;64877;50.994;13.650;2024-01-07T10:22:46;6.65;;;3.45;;
76131;SDS011;64877;50.994;13.650;2024-01-07T10:25:15;5.53;;;2.60;;
76131;SDS011;64877;50.994;13.650;2024-01-07T10:27:41;4.90;;;3.00;;
76131;SDS011;64877;50.994;13.650;2024-01-07T10:30:06;6.88;;;2.85;;
76131;SDS011;64877;50.994;13.650;2024-01-07T10:32:34;6.25;;;3.10;;
76131;SDS011;64877;50.994;13.650;2024-01-07T10:35:05;4.10;;;2.40;;
76131;SDS011;64877;50.994;13.650;2024-01-07T10:37:31;5.88;;;3.03;;
76131;SDS011;64877;50.994;13.650;2024-01-07T10:39:57;5.40;;;2.97;;
76131;SDS011;64877;50.994;13.650;2024-01-07T10:42:29;13.52;;;2.78;;
76131;SDS011;64877;50.994;13.650;2024-01-07T10:44:59;5.70;;;3.08;;
76131;SDS011;64877;50.994;13.650;2024-01-07T10:47:26;5.82;;;3.08;;
76131;SDS011;64877;50.994;13.650;2024-01-07T10:49:54;5.38;;;2.50;;
76131;SDS011;64877;50.994;13.650;2024-01-07T10:52:26;4.97;;;2.78;;
76131;SDS011;64877;50.994;13.650;2024-01-07T10:54:53;4.60;;;2.78;;
76131;SDS011;64877;50.994;13.650;2024-01-07T11:00:06;8.15;;;2.88;;
76131;SDS011;64877;50.994;13.650;2024-01-07T11:02:38;5.43;;;2.67;;
76131;SDS011;64877;50.994;13.650;2024-01-07T11:05:17;6.38;;;3.13;;
76131;SDS011;64877;50.994;13.650;2024-01-07T11:08:05;5.50;;;2.75;;
76131;SDS011;64877;50.994;13.650;2024-01-07T11:10:48;5.07;;;2.40;;
76131;SDS011;64877;50.994;13.650;2024-01-07T11:16:01;8.35;;;2.90;;
76131;SDS011;64877;50.994;13.650;2024-01-07T11:18:27;3.95;;;2.47;;
76131;SDS011;64877;50.994;13.650;2024-01-07T11:21:00;6.28;;;2.53;;
76131;SDS011;64877;50.994;13.650;2024-01-07T11:23:27;4.57;;;2.60;;
76131;SDS011;64877;50.994;13.650;2024-01-07T11:26:04;6.05;;;3.08;;
76131;SDS011;64877;50.994;13.650;2024-01-07T11:28:42;5.10;;;2.47;;
76131;SDS011;64877;50.994;13.650;2024-01-07T11:31:07;4.93;;;2.30;;
76131;SDS011;64877;50.994;13.650;2024-01-07T11:33:36;4.80;;;2.50;;
76131;SDS011;64877;50.994;13.650;2024-01-07T11:36:02;4.85;;;2.45;;
76131;SDS011;64877;50.994;13.650;2024-01-07T11:38:29;4.38;;;2.45;;
76131;SDS011;64877;50.994;13.650;2024-01-07T11:40:56;3.97;;;2.00;;
76131;SDS011;64877;50.994;13.650;2024-01-07T11:43:22;6.78;;;2.92;;
76131;SDS011;64877;50.994;13.650;2024-01-07T11:45:51;4.47;;;2.20;;
76131;SDS011;64877;50.994;13.650;2024-01-07T11:48:17;5.40;;;2.60;;
76131;SDS011;64877;50.994;13.650;2024-01-07T11:50:43;6.25;;;3.05;;
76131;SDS011;64877;50.994;13.650;2024-01-07T11:53:11;4.65;;;2.42;;
76131;SDS011;64877;50.994;13.650;2024-01-07T11:55:36;5.15;;;1.77;;
76131;SDS011;64877;50.994;13.650;2024-01-07T11:58:02;4.70;;;2.15;;
76131;SDS011;64877;50.994;13.650;2024-01-07T12:00:32;5.18;;;2.20;;
76131;SDS011;64877;50.994;13.650;2024-01-07T12:03:01;4.65;;;2.10;;
76131;SDS011;64877;50.994;13.650;2024-01-07T12:05:28;3.53;;;1.92;;
76131;SDS011;64877;50.994;13.650;2024-01-07T12:07:54;3.65;;;2.00;;
76131;SDS011;64877;50.994;13.650;2024-01-07T12:10:20;4.55;;;2.40;;
76131;SDS011;64877;50.994;13.650;2024-01-07T12:12:45;7.80;;;2.53;;
76131;SDS011;64877;50.994;13.650;2024-01-07T12:15:12;4.25;;;1.90;;
76131;SDS011;64877;50.994;13.650;2024-01-07T12:17:38;5.43;;;2.45;;
76131;SDS011;64877;50.994;13.650;2024-01-07T12:20:04;6.13;;;2.30;;
76131;SDS011;64877;50.994;13.650;2024-01-07T12:22:31;4.53;;;2.53;;
76131;SDS011;64877;50.994;13.650;2024-01-07T12:25:03;3.95;;;2.38;;
76131;SDS011;64877;50.994;13.650;2024-01-07T12:27:29;5.30;;;2.55;;
76131;SDS011;64877;50.994;13.650;2024-01-07T12:29:58;6.68;;;2.58;;
76131;SDS011;64877;50.994;13.650;2024-01-07T12:32:27;6.53;;;3.08;;
76131;SDS011;64877;50.994;13.650;2024-01-07T12:34:53;5.38;;;2.45;;
76131;SDS011;64877;50.994;13.650;2024-01-07T12:37:18;5.60;;;2.78;;
76131;SDS011;64877;50.994;13.650;2024-01-07T12:39:44;4.82;;;2.20;;
76131;SDS011;64877;50.994;13.650;2024-01-07T12:42:09;5.10;;;2.30;;
76131;SDS011;64877;50.994;13.650;2024-01-07T12:44:38;3.85;;;2.50;;
76131;SDS011;64877;50.994;13.650;2024-01-07T12:47:03;5.10;;;2.30;;
76131;SDS011;64877;50.994;13.650;2024-01-07T12:49:29;4.95;;;2.70;;
76131;SDS011;64877;50.994;13.650;2024-01-07T12:51:54;4.65;;;2.08;;
76131;SDS011;64877;50.994;13.650;2024-01-07T12:54:20;5.07;;;2.50;;
76131;SDS011;64877;50.994;13.650;2024-01-07T12:56:46;4.40;;;2.03;;
76131;SDS011;64877;50.994;13.650;2024-01-07T12:59:12;4.50;;;2.10;;
76131;SDS011;64877;50.994;13.650;2024-01-07T13:01:37;4.85;;;1.65;;
76131;SDS011;64877;50.994;13.650;2024-01-07T13:04:03;3.58;;;1.85;;
76131;SDS011;64877;50.994;13.650;2024-01-07T13:06:28;3.30;;;1.83;;
76131;SDS011;64877;50.994;13.650;2024-01-07T13:08:54;4.03;;;2.13;;
76131;SDS011;64877;50.994;13.650;2024-01-07T13:11:20;5.18;;;2.13;;
76131;SDS011;64877;50.994;13.650;2024-01-07T13:13:45;8.02;;;2.65;;
76131;SDS011;64877;50.994;13.650;2024-01-07T13:16:11;3.90;;;2.10;;
76131;SDS011;64877;50.994;13.650;2024-01-07T13:18:37;2.80;;;1.60;;
76131;SDS011;64877;50.994;13.650;2024-01-07T13:21:02;5.05;;;2.10;;
76131;SDS011;64877;50.994;13.650;2024-01-07T13:23:28;4.13;;;1.85;;
76131;SDS011;64877;50.994;13.650;2024-01-07T13:25:54;3.22;;;1.73;;
76131;SDS011;64877;50.994;13.650;2024-01-07T13:28:20;3.60;;;1.83;;
76131;SDS011;64877;50.994;13.650;2024-01-07T13:30:46;3.38;;;1.65;;
76131;SDS011;64877;50.994;13.650;2024-01-07T13:33:11;4.18;;;2.03;;
76131;SDS011;64877;50.994;13.650;2024-01-07T13:35:38;4.47;;;1.85;;
76131;SDS011;64877;50.994;13.650;2024-01-07T13:38:04;3.38;;;1.83;;
76131;SDS011;64877;50.994;13.650;2024-01-07T13:40:29;4.22;;;2.17;;
76131;SDS011;64877;50.994;13.650;2024-01-07T13:42:54;3.97;;;1.73;;
76131;SDS011;64877;50.994;13.650;2024-01-07T13:45:20;5.75;;;2.55;;
76131;SDS011;64877;50.994;13.650;2024-01-07T13:47:47;3.90;;;2.10;;
76131;SDS011;64877;50.994;13.650;2024-01-07T13:50:13;3.53;;;1.58;;
76131;SDS011;64877;50.994;13.650;2024-01-07T13:52:40;4.25;;;1.65;;
76131;SDS011;64877;50.994;13.650;2024-01-07T13:55:06;3.70;;;2.13;;
76131;SDS011;64877;50.994;13.650;2024-01-07T13:57:34;4.60;;;2.13;;
76131;SDS011;64877;50.994;13.650;2024-01-07T14:00:00;4.25;;;2.53;;
76131;SDS011;64877;50.994;13.650;2024-01-07T14:02:33;5.40;;;2.53;;
76131;SDS011;64877;50.994;13.650;2024-01-07T14:04:59;3.75;;;1.90;;
76131;SDS011;64877;50.994;13.650;2024-01-07T14:07:24;4.00;;;2.03;;
76131;SDS011;64877;50.994;13.650;2024-01-07T14:09:51;3.22;;;1.52;;
76131;SDS011;64877;50.994;13.650;2024-01-07T14:12:17;3.95;;;1.42;;
76131;SDS011;64877;50.994;13.650;2024-01-07T14:14:43;5.32;;;1.98;;
76131;SDS011;64877;50.994;13.650;2024-01-07T14:17:08;11.50;;;2.20;;
76131;SDS011;64877;50.994;13.650;2024-01-07T14:19:33;3.90;;;1.92;;
76131;SDS011;64877;50.994;13.650;2024-01-07T14:21:59;3.45;;;1.60;;
76131;SDS011;64877;50.994;13.650;2024-01-07T14:24:25;4.20;;;2.10;;